createdAt,value
2018-05-21T18:01:49.576Z,34.8
2018-05-21T18:02:54.952Z,35.1
2018-05-21T18:03:59.317Z,34.9
2018-05-21T18:05:04.677Z,34.6
2018-05-21T18:06:10.011Z,34.9
2018-05-21T18:07:14.362Z,34.8
2018-05-21T18:08:18.704Z,34.8
2018-05-21T18:09:24.060Z,34.9
2018-05-21T18:10:28.526Z,35.1
2018-05-21T18:11:33.895Z,35.2
2018-05-21T18:12:39.366Z,35
2018-05-21T18:13:43.705Z,35.1
2018-05-21T18:14:49.066Z,35.1
2018-05-21T18:15:54.347Z,35.2
2018-05-21T18:16:58.612Z,35.1
2018-05-21T18:18:02.882Z,34.7
2018-05-21T18:19:08.244Z,34.6
2018-05-21T18:20:13.515Z,34.7
2018-05-21T18:21:20.820Z,34.9
2018-05-21T18:22:25.191Z,34.9
2018-05-21T18:23:30.659Z,34.8
2018-05-21T18:24:34.925Z,34.8
2018-05-21T18:25:39.196Z,34.4
2018-05-21T18:26:44.551Z,34.5
2018-05-21T18:27:49.926Z,34.5
2018-05-21T18:28:54.166Z,34.7
2018-05-21T18:29:58.529Z,34.2
2018-05-21T18:31:03.785Z,34.2
2018-05-21T18:32:09.127Z,34.3
2018-05-21T18:33:13.470Z,34.4
2018-05-21T18:34:18.836Z,34.1
2018-05-21T18:35:23.403Z,33.9
2018-05-21T18:36:27.771Z,33.9
2018-05-21T18:37:33.041Z,33.9
2018-05-21T18:38:38.404Z,34
2018-05-21T18:39:42.869Z,34.1
2018-05-21T18:40:48.230Z,34
2018-05-21T18:41:52.496Z,34
2018-05-21T18:42:56.667Z,34.1
2018-05-21T18:44:01.036Z,33.9
2018-05-21T18:45:06.300Z,33.9
2018-05-21T18:46:11.562Z,33.8
2018-05-21T18:47:15.938Z,33.8
2018-05-21T18:48:20.235Z,33.8
2018-05-21T18:49:25.700Z,33.4
2018-05-21T18:50:29.770Z,33.5
2018-05-21T18:51:34.028Z,33.6
2018-05-21T18:52:38.397Z,33.5
2018-05-21T18:53:43.756Z,33.5
2018-05-21T18:54:47.925Z,33.8
2018-05-21T18:55:52.286Z,33.8
2018-05-21T18:56:57.657Z,33.8
2018-05-21T18:58:02.927Z,34.2
2018-05-21T18:59:07.286Z,34.1
2018-05-21T19:00:11.637Z,34
2018-05-21T19:01:16.915Z,34.2
2018-05-21T19:02:24.287Z,34.1
2018-05-21T19:03:28.553Z,34.3
2018-05-21T19:04:33.014Z,34.3
2018-05-21T19:05:38.279Z,33.9
2018-05-21T19:06:42.545Z,34
2018-05-21T19:07:46.812Z,34.1
2018-05-21T19:08:53.973Z,34.1
2018-05-21T19:09:59.332Z,34
2018-05-21T19:11:04.697Z,34.3
2018-05-21T19:12:08.960Z,34.4
2018-05-21T19:13:13.232Z,34.4
2018-05-21T19:14:18.591Z,34.7
2018-05-21T19:15:23.952Z,34.5
2018-05-21T19:16:28.256Z,34.7
2018-05-21T19:17:33.640Z,34.8
2018-05-21T19:18:38.912Z,34.9
2018-05-21T19:19:43.174Z,34.8
2018-05-21T19:20:47.510Z,34.9
2018-05-21T19:21:52.844Z,34.7
2018-05-21T19:22:58.189Z,34.4
2018-05-21T19:24:02.653Z,34.6
2018-05-21T19:25:08.017Z,34.9
2018-05-21T19:26:13.357Z,35
2018-05-21T19:27:17.623Z,35.1
2018-05-21T19:28:22.084Z,35.2
2018-05-21T19:29:27.472Z,35.3
2018-05-21T19:30:31.731Z,35.3
2018-05-21T19:31:35.896Z,35.4
2018-05-21T19:32:41.168Z,35.6
2018-05-21T19:33:46.531Z,35.8
2018-05-21T19:34:50.889Z,35.8
2018-05-21T19:35:55.146Z,35.8
2018-05-21T19:37:00.407Z,35.9
2018-05-21T19:38:05.781Z,35.6
2018-05-21T19:39:10.047Z,35.9
2018-05-21T19:40:14.321Z,35.9
2018-05-21T19:41:19.567Z,35.8
2018-05-21T19:42:24.847Z,35.8
2018-05-21T19:43:30.207Z,35.8
2018-05-21T19:44:34.569Z,35.7
2018-05-21T19:45:39.834Z,35.7
2018-05-21T19:46:45.199Z,35.8
2018-05-21T19:47:49.471Z,35.7
2018-05-21T19:48:53.632Z,35.8
2018-05-21T19:49:57.897Z,35.7
2018-05-21T19:51:03.156Z,35.7
2018-05-21T19:52:08.421Z,35.7
2018-05-21T19:53:12.794Z,35.5
2018-05-21T19:54:17.152Z,35.7
2018-05-21T19:55:22.511Z,35.7
2018-05-21T19:56:27.773Z,35.7
2018-05-21T19:57:31.947Z,35.7
2018-05-21T19:58:36.212Z,35.7
2018-05-21T19:59:41.371Z,35.7
2018-05-21T20:00:46.767Z,35.7
2018-05-21T20:01:51.029Z,35.7
2018-05-21T20:02:59.408Z,35.5
2018-05-21T20:04:03.669Z,35.7
2018-05-21T20:05:09.024Z,35.7
2018-05-21T20:06:14.294Z,35.7
2018-05-21T20:07:18.507Z,35.7
2018-05-21T20:08:22.676Z,35.7
2018-05-21T20:09:29.942Z,35.7
2018-05-21T20:10:35.202Z,35.6
2018-05-21T20:11:40.543Z,35.7
2018-05-21T20:12:44.820Z,35.6
2018-05-21T20:13:49.208Z,35.6
2018-05-21T20:14:54.547Z,35.6
2018-05-21T20:15:58.886Z,35.6
2018-05-21T20:17:03.221Z,35.6
2018-05-21T20:18:08.570Z,35.3
2018-05-21T20:19:13.908Z,35.6
2018-05-21T20:20:18.272Z,36.2
2018-05-21T20:21:23.539Z,35.6
2018-05-21T20:22:28.920Z,35.6
2018-05-21T20:23:33.184Z,35.6
2018-05-21T20:24:37.442Z,35.6
2018-05-21T20:25:42.799Z,35.6
2018-05-21T20:26:47.971Z,35.6
2018-05-21T20:27:52.336Z,35.6
2018-05-21T20:28:56.692Z,35.6
2018-05-21T20:30:01.957Z,35.6
2018-05-21T20:31:07.224Z,35.6
2018-05-21T20:32:11.583Z,35.5
2018-05-21T20:33:16.945Z,35.6
2018-05-21T20:34:22.208Z,35.6
2018-05-21T20:35:26.564Z,35.5
2018-05-21T20:36:33.928Z,35.6
2018-05-21T20:37:39.199Z,35.6
2018-05-21T20:38:44.467Z,35.6
2018-05-21T20:39:49.729Z,35.6
2018-05-21T20:40:54.091Z,35.6
2018-05-21T20:41:59.451Z,35.6
2018-05-21T20:43:04.743Z,35.8
2018-05-21T20:44:09.000Z,35.6
2018-05-21T20:45:13.418Z,35.6
2018-05-21T20:46:18.693Z,35.6
2018-05-21T20:47:24.066Z,35.6
2018-05-21T20:48:28.427Z,35.6
2018-05-21T20:49:32.882Z,35.6
2018-05-21T20:50:38.344Z,35.6
2018-05-21T20:51:42.679Z,35.6
2018-05-21T20:52:47.956Z,35.6
2018-05-21T20:53:53.301Z,36.2
2018-05-21T20:54:57.632Z,35.5
2018-05-21T20:56:01.968Z,35.5
2018-05-21T20:57:06.528Z,35.5
2018-05-21T20:58:10.871Z,35.9
2018-05-21T20:59:16.208Z,35.5
2018-05-21T21:00:21.541Z,35.5
2018-05-21T21:01:25.906Z,35.5
2018-05-21T21:02:30.175Z,35.5
2018-05-21T21:03:38.438Z,35.5
2018-05-21T21:04:43.806Z,35.5
2018-05-21T21:05:48.072Z,35.5
2018-05-21T21:06:52.332Z,35.5
2018-05-21T21:07:57.707Z,35.6
2018-05-21T21:09:02.870Z,35.5
2018-05-21T21:10:08.140Z,35.5
2018-05-21T21:11:12.405Z,35.5
2018-05-21T21:12:16.666Z,35.5
2018-05-21T21:13:21.922Z,35.6
2018-05-21T21:14:27.187Z,35.6
2018-05-21T21:15:31.453Z,35.6
2018-05-21T21:16:35.714Z,35.6
2018-05-21T21:17:40.982Z,35.6
2018-05-21T21:18:46.245Z,35.6
2018-05-21T21:19:51.511Z,35.6
2018-05-21T21:20:55.871Z,35.6
2018-05-21T21:22:00.227Z,35.6
2018-05-21T21:23:05.493Z,35.6
2018-05-21T21:24:11.750Z,35.6
2018-05-21T21:25:16.013Z,35.6
2018-05-21T21:26:20.384Z,36.3
2018-05-21T21:27:25.760Z,35.6
2018-05-21T21:28:29.921Z,35.6
2018-05-21T21:29:34.284Z,35.6
2018-05-21T21:30:41.540Z,35.6
2018-05-21T21:31:46.798Z,35.6
2018-05-21T21:32:52.065Z,35.6
2018-05-21T21:33:57.331Z,35.6
2018-05-21T21:35:01.594Z,35.6
2018-05-21T21:36:05.882Z,35.6
2018-05-21T21:37:11.165Z,35.6
2018-05-21T21:38:16.439Z,35.6
2018-05-21T21:39:20.699Z,35.6
2018-05-21T21:40:25.033Z,35.6
2018-05-21T21:41:30.198Z,35.6
2018-05-21T21:42:35.471Z,35.7
2018-05-21T21:43:40.735Z,35.7
2018-05-21T21:44:45.102Z,35.7
2018-05-21T21:45:50.365Z,35.7
2018-05-21T21:46:55.707Z,35.7
2018-05-21T21:48:01.064Z,35.7
2018-05-21T21:49:05.404Z,35.7
2018-05-21T21:50:10.870Z,35.7
2018-05-21T21:51:16.207Z,35.7
2018-05-21T21:52:20.773Z,35.7
2018-05-21T21:53:26.237Z,35.7
2018-05-21T21:54:30.603Z,35.7
2018-05-21T21:55:34.940Z,35.7
2018-05-21T21:56:40.310Z,35.7
2018-05-21T21:57:44.655Z,35.7
2018-05-21T21:58:48.991Z,35.7
2018-05-21T21:59:54.451Z,35.7
2018-05-21T22:00:58.810Z,35.7
2018-05-21T22:02:02.970Z,36.3
2018-05-21T22:03:07.251Z,35.7
2018-05-21T22:04:14.623Z,35.7
2018-05-21T22:05:19.980Z,35.7
2018-05-21T22:06:27.315Z,35.7
2018-05-21T22:07:32.691Z,35.7
2018-05-21T22:08:37.951Z,35.7
2018-05-21T22:09:43.317Z,35.7
2018-05-21T22:10:47.677Z,35.7
2018-05-21T22:11:52.935Z,35.7
2018-05-21T22:12:58.309Z,35.7
2018-05-21T22:14:02.467Z,35.7
2018-05-21T22:15:06.734Z,35.7
2018-05-21T22:16:10.897Z,35.7
2018-05-21T22:17:16.160Z,35.7
2018-05-21T22:18:21.522Z,35.8
2018-05-21T22:19:25.861Z,35.8
2018-05-21T22:20:30.323Z,35.7
2018-05-21T22:21:35.663Z,35.8
2018-05-21T22:22:40.138Z,35.8
2018-05-21T22:23:44.605Z,35.8
2018-05-21T22:24:49.944Z,35.8
2018-05-21T22:25:54.403Z,35.8
2018-05-21T22:26:59.743Z,35.8
2018-05-21T22:28:05.096Z,36.5
2018-05-21T22:29:09.559Z,35.8
2018-05-21T22:30:14.933Z,35.8
2018-05-21T22:31:20.203Z,35.8
2018-05-21T22:32:24.470Z,35.8
2018-05-21T22:33:28.811Z,35.8
2018-05-21T22:34:34.175Z,35.8
2018-05-21T22:35:39.429Z,35.8
2018-05-21T22:36:43.788Z,35.8
2018-05-21T22:37:48.264Z,36.1
2018-05-21T22:38:53.520Z,36.4
2018-05-21T22:39:57.874Z,35.8
2018-05-21T22:41:02.129Z,35.8
2018-05-21T22:42:07.486Z,35.8
2018-05-21T22:43:12.855Z,35.9
2018-05-21T22:44:17.119Z,35.8
2018-05-21T22:45:21.374Z,35.8
2018-05-21T22:46:26.634Z,35.8
2018-05-21T22:47:31.904Z,35.8
2018-05-21T22:48:37.269Z,35.8
2018-05-21T22:49:41.529Z,35.9
2018-05-21T22:50:45.893Z,35.8
2018-05-21T22:51:51.061Z,35.8
2018-05-21T22:52:56.331Z,35.9
2018-05-21T22:54:00.599Z,35.9
2018-05-21T22:55:04.862Z,35.8
2018-05-21T22:56:10.126Z,35.8
2018-05-21T22:57:15.383Z,35.8
2018-05-21T22:58:20.764Z,36
2018-05-21T22:59:25.231Z,35.9
2018-05-21T23:00:30.560Z,35.9
2018-05-21T23:01:35.925Z,36.5
2018-05-21T23:02:40.267Z,35.9
2018-05-21T23:03:44.729Z,35.9
2018-05-21T23:04:52.067Z,35.9
2018-05-21T23:05:56.428Z,35.9
2018-05-21T23:07:00.890Z,35.9
2018-05-21T23:08:05.466Z,36.1
2018-05-21T23:09:09.959Z,36.6
2018-05-21T23:10:15.318Z,35.9
2018-05-21T23:11:19.684Z,35.9
2018-05-21T23:12:23.955Z,35.9
2018-05-21T23:13:29.321Z,35.9
2018-05-21T23:14:34.589Z,35.9
2018-05-21T23:15:38.853Z,35.9
2018-05-21T23:16:43.212Z,35.9
2018-05-21T23:17:48.683Z,35.9
2018-05-21T23:18:53.154Z,35.9
2018-05-21T23:19:58.491Z,36
2018-05-21T23:21:03.829Z,35.9
2018-05-21T23:22:08.297Z,35.9
2018-05-21T23:23:30.122Z,35.9
2018-05-21T23:24:35.489Z,35.9
2018-05-21T23:25:39.849Z,35.9
2018-05-21T23:26:44.125Z,35.9
2018-05-21T23:27:52.411Z,36
2018-05-21T23:28:57.770Z,35.9
2018-05-21T23:30:03.058Z,35.9
2018-05-21T23:31:07.522Z,35.9
2018-05-21T23:32:12.865Z,35.9
2018-05-21T23:33:18.236Z,36.2
2018-05-21T23:34:22.576Z,35.9
2018-05-21T23:35:27.833Z,36
2018-05-21T23:36:33.167Z,35.9
2018-05-21T23:37:38.509Z,36
2018-05-21T23:38:42.874Z,35.9
2018-05-21T23:39:48.231Z,35.9
2018-05-21T23:40:53.595Z,35.9
2018-05-21T23:41:57.854Z,35.9
2018-05-21T23:43:02.222Z,36.1
2018-05-21T23:44:07.566Z,35.9
2018-05-21T23:45:12.832Z,35.9
2018-05-21T23:46:17.100Z,35.9
2018-05-21T23:47:24.366Z,35.9
2018-05-21T23:48:31.725Z,36.2
2018-05-21T23:49:36.994Z,35.9
2018-05-21T23:50:42.253Z,35.9
2018-05-21T23:51:46.618Z,35.9
2018-05-21T23:52:50.980Z,35.9
2018-05-21T23:53:56.237Z,35.9
2018-05-21T23:55:01.503Z,35.9
2018-05-21T23:56:05.767Z,35.9
2018-05-21T23:57:10.130Z,35.9
2018-05-21T23:58:15.506Z,36.2
2018-05-21T23:59:20.070Z,35.9
